createdAt,value
2023-01-30T00:02:48.282Z,13.68
2023-01-30T00:05:51.458Z,13.27
2023-01-30T00:08:54.306Z,14.52
2023-01-30T00:11:57.270Z,15.05
2023-01-30T00:15:00.112Z,13.90
2023-01-30T00:18:03.223Z,14.95
2023-01-30T00:21:08.537Z,14.35
2023-01-30T00:24:11.476Z,14.90
2023-01-30T00:27:14.419Z,13.48
2023-01-30T00:30:17.799Z,12.55
2023-01-30T00:36:27.413Z,12.55
2023-01-30T00:39:30.284Z,14.32
2023-01-30T00:42:52.077Z,13.23
2023-01-30T00:46:13.840Z,12.95
2023-01-30T00:49:17.176Z,13.65
2023-01-30T00:52:20.369Z,13.10
2023-01-30T00:55:23.259Z,12.63
2023-01-30T00:58:26.611Z,13.70
2023-01-30T01:01:29.430Z,13.45
2023-01-30T01:04:32.286Z,13.18
2023-01-30T01:07:35.435Z,13.13
2023-01-30T01:10:38.668Z,14.55
2023-01-30T01:13:41.501Z,13.43
2023-01-30T01:16:44.304Z,14.27
2023-01-30T01:19:47.329Z,14.10
2023-01-30T01:22:54.548Z,14.57
2023-01-30T01:26:01.859Z,13.62
2023-01-30T01:29:05.831Z,12.40
2023-01-30T01:32:08.761Z,12.88
2023-01-30T01:35:11.853Z,14.25
2023-01-30T01:38:14.633Z,12.85
2023-01-30T01:41:18.556Z,12.25
2023-01-30T01:44:25.013Z,12.80
2023-01-30T01:47:28.628Z,14.00
2023-01-30T01:50:42.898Z,14.45
2023-01-30T01:54:03.525Z,14.05
2023-01-30T01:57:14.490Z,12.20
2023-01-30T02:00:20.705Z,14.00
2023-01-30T02:03:26.250Z,12.23
2023-01-30T02:06:30.175Z,13.15
2023-01-30T02:09:33.061Z,12.15
2023-01-30T02:12:38.265Z,13.40
2023-01-30T02:15:41.380Z,13.85
2023-01-30T02:22:32.697Z,13.38
2023-01-30T02:25:55.658Z,12.80
2023-01-30T02:29:04.867Z,13.67
2023-01-30T02:32:19.798Z,14.48
2023-01-30T02:35:42.240Z,14.80
2023-01-30T02:38:56.805Z,14.38
2023-01-30T02:42:21.852Z,14.25
2023-01-30T02:45:37.062Z,14.07
2023-01-30T02:48:46.605Z,13.80
2023-01-30T02:51:51.551Z,14.55
2023-01-30T02:54:54.195Z,13.18
2023-01-30T02:57:58.433Z,14.25
2023-01-30T03:01:21.084Z,14.18
2023-01-30T03:05:15.133Z,14.43
2023-01-30T03:08:35.010Z,14.85
2023-01-30T03:12:08.866Z,13.65
2023-01-30T03:15:22.027Z,14.70
2023-01-30T03:21:28.176Z,13.00
2023-01-30T03:24:31.544Z,14.02
2023-01-30T03:27:35.580Z,13.38
2023-01-30T03:30:38.856Z,14.73
2023-01-30T03:33:42.268Z,16.52
2023-01-30T03:36:47.275Z,16.92
2023-01-30T03:39:51.157Z,15.93
2023-01-30T03:42:54.318Z,16.58
2023-01-30T03:45:57.018Z,16.73
2023-01-30T03:49:00.249Z,16.40
2023-01-30T03:52:02.943Z,17.20
2023-01-30T03:55:06.647Z,17.70
2023-01-30T03:58:09.481Z,17.75
2023-01-30T04:01:12.712Z,17.15
2023-01-30T04:04:16.713Z,17.37
2023-01-30T04:07:20.278Z,16.62
2023-01-30T04:10:26.094Z,17.05
2023-01-30T04:13:29.016Z,16.42
2023-01-30T04:16:32.566Z,16.90
2023-01-30T04:19:40.627Z,16.08
2023-01-30T04:22:43.554Z,17.42
2023-01-30T04:25:47.064Z,16.95
2023-01-30T04:28:51.162Z,15.90
2023-01-30T04:31:54.096Z,17.12
2023-01-30T04:34:57.244Z,16.70
2023-01-30T04:38:00.087Z,15.80
2023-01-30T04:41:03.544Z,16.05
2023-01-30T04:44:07.397Z,16.35
2023-01-30T04:47:11.417Z,16.33
2023-01-30T04:50:14.383Z,16.17
2023-01-30T04:53:18.554Z,16.40
2023-01-30T04:56:21.459Z,15.07
2023-01-30T04:59:24.795Z,15.50
2023-01-30T05:02:27.685Z,15.60
2023-01-30T05:05:30.684Z,16.65
2023-01-30T05:08:33.498Z,16.55
2023-01-30T05:11:36.542Z,15.63
2023-01-30T05:14:41.388Z,16.58
2023-01-30T05:17:44.805Z,16.25
2023-01-30T05:20:48.013Z,16.33
2023-01-30T05:23:52.848Z,15.38
2023-01-30T05:26:55.673Z,17.45
2023-01-30T05:29:58.646Z,17.40
2023-01-30T05:33:02.484Z,17.90
2023-01-30T05:36:06.217Z,17.20
2023-01-30T05:39:09.756Z,17.40
2023-01-30T05:42:12.608Z,14.90
2023-01-30T05:45:16.767Z,15.57
2023-01-30T05:48:19.949Z,17.50
2023-01-30T05:51:26.314Z,18.30
2023-01-30T05:54:29.109Z,15.60
2023-01-30T05:57:31.896Z,15.68
2023-01-30T06:00:34.677Z,17.45
2023-01-30T06:03:38.601Z,17.12
2023-01-30T06:06:41.145Z,17.35
2023-01-30T06:09:44.229Z,17.35
2023-01-30T06:12:46.828Z,17.15
2023-01-30T06:15:50.067Z,18.52
2023-01-30T06:18:52.743Z,16.23
2023-01-30T06:21:58.315Z,17.52
2023-01-30T06:25:00.847Z,17.55
2023-01-30T06:28:04.198Z,18.83
2023-01-30T06:31:08.181Z,15.70
2023-01-30T06:34:12.076Z,16.83
2023-01-30T06:37:14.662Z,16.35
2023-01-30T06:40:18.129Z,17.55
2023-01-30T06:43:20.942Z,17.92
2023-01-30T06:46:24.148Z,17.52
2023-01-30T06:49:27.441Z,16.77
2023-01-30T06:52:30.601Z,17.65
2023-01-30T06:55:35.574Z,18.23
2023-01-30T06:58:38.858Z,16.75
2023-01-30T07:01:41.576Z,18.20
2023-01-30T07:04:44.773Z,17.60
2023-01-30T07:07:47.568Z,18.13
2023-01-30T07:10:50.763Z,17.48
2023-01-30T07:13:53.292Z,16.67
2023-01-30T07:16:56.461Z,18.80
2023-01-30T07:19:59.437Z,17.77
2023-01-30T07:23:04.300Z,18.58
2023-01-30T07:26:06.946Z,17.77
2023-01-30T07:29:10.446Z,20.37
2023-01-30T07:32:17.053Z,18.60
2023-01-30T07:35:21.804Z,19.12
2023-01-30T07:38:24.693Z,19.90
2023-01-30T07:41:28.096Z,19.35
2023-01-30T07:44:30.744Z,18.48
2023-01-30T07:47:33.966Z,17.27
2023-01-30T07:50:36.780Z,16.73
2023-01-30T07:53:40.113Z,17.67
2023-01-30T07:56:42.744Z,17.80
2023-01-30T07:59:45.962Z,18.08
2023-01-30T08:02:48.599Z,18.47
2023-01-30T08:05:53.707Z,19.48
2023-01-30T08:08:58.574Z,18.50
2023-01-30T08:12:01.823Z,18.10
2023-01-30T08:15:04.923Z,18.77
2023-01-30T08:18:08.167Z,18.83
2023-01-30T08:21:11.716Z,19.70
2023-01-30T08:24:15.298Z,20.88
2023-01-30T08:27:17.972Z,22.13
2023-01-30T08:30:22.638Z,22.90
2023-01-30T08:33:26.246Z,22.25
2023-01-30T08:36:29.385Z,24.23
2023-01-30T08:39:32.986Z,23.37
2023-01-30T08:42:36.659Z,24.80
2023-01-30T08:45:39.608Z,25.25
2023-01-30T08:48:50.029Z,26.40
2023-01-30T08:51:52.928Z,24.83
2023-01-30T08:54:56.226Z,26.33
2023-01-30T08:57:59.177Z,26.92
2023-01-30T09:04:07.975Z,17.95
2023-01-30T09:07:11.161Z,18.10
2023-01-30T09:10:14.070Z,14.83
2023-01-30T09:13:17.643Z,16.50
2023-01-30T09:16:20.245Z,15.40
2023-01-30T09:19:28.236Z,15.70
2023-01-30T09:22:30.864Z,16.05
2023-01-30T09:25:34.272Z,16.02
2023-01-30T09:28:37.175Z,17.50
2023-01-30T09:31:41.562Z,17.40
2023-01-30T09:34:45.351Z,18.00
2023-01-30T09:37:53.395Z,16.48
2023-01-30T09:40:59.024Z,18.70
2023-01-30T09:44:23.890Z,17.40
2023-01-30T09:48:01.701Z,18.60
2023-01-30T09:51:11.870Z,20.27
2023-01-30T09:54:21.981Z,17.55
2023-01-30T09:57:26.182Z,17.77
2023-01-30T10:03:42.494Z,17.62
2023-01-30T10:06:59.303Z,15.95
2023-01-30T10:10:20.973Z,16.60
2023-01-30T10:13:37.426Z,16.45
2023-01-30T10:16:55.926Z,17.90
2023-01-30T10:19:58.598Z,17.62
2023-01-30T10:23:17.363Z,17.45
2023-01-30T10:26:23.398Z,18.27
2023-01-30T10:29:33.305Z,17.67
2023-01-30T10:32:44.986Z,17.42
2023-01-30T10:36:02.685Z,18.58
2023-01-30T10:39:18.581Z,19.17
2023-01-30T10:42:29.654Z,18.70
2023-01-30T10:45:50.941Z,18.80
2023-01-30T10:49:11.521Z,16.55
2023-01-30T10:52:49.773Z,16.87
2023-01-30T10:56:00.099Z,17.98
2023-01-30T10:59:44.644Z,16.73
2023-01-30T11:03:10.610Z,17.60
2023-01-30T11:06:23.911Z,17.08
2023-01-30T11:12:58.238Z,15.88
2023-01-30T11:16:08.057Z,17.87
2023-01-30T11:19:21.224Z,17.40
2023-01-30T11:22:27.152Z,17.05
2023-01-30T11:25:29.948Z,18.58
2023-01-30T11:28:51.315Z,20.80
2023-01-30T11:31:54.874Z,20.42
2023-01-30T11:35:06.623Z,21.27
2023-01-30T11:38:24.601Z,18.48
2023-01-30T11:41:28.278Z,19.50
2023-01-30T11:44:37.692Z,20.05
2023-01-30T11:48:00.676Z,20.75
2023-01-30T11:51:11.131Z,19.70
2023-01-30T11:54:19.611Z,19.80
2023-01-30T11:57:23.527Z,19.27
2023-01-30T12:00:37.368Z,20.33
2023-01-30T12:03:47.863Z,20.50
2023-01-30T12:07:06.318Z,18.75
2023-01-30T12:10:30.228Z,19.33
2023-01-30T12:16:57.887Z,18.48
2023-01-30T12:20:03.732Z,19.05
2023-01-30T12:23:13.103Z,19.40
2023-01-30T12:26:18.786Z,18.87
2023-01-30T12:29:41.908Z,18.50
2023-01-30T12:32:45.340Z,19.77
2023-01-30T12:36:17.168Z,17.95
2023-01-30T12:39:25.240Z,16.05
2023-01-30T12:42:58.400Z,16.65
2023-01-30T12:46:27.071Z,17.05
2023-01-30T12:49:45.259Z,17.65
2023-01-30T12:53:00.266Z,15.85
2023-01-30T12:56:09.250Z,16.02
2023-01-30T12:59:24.525Z,16.70
2023-01-30T13:02:45.343Z,15.63
2023-01-30T13:05:56.236Z,17.48
2023-01-30T13:09:17.942Z,16.67
2023-01-30T13:12:48.617Z,18.40
2023-01-30T13:16:32.063Z,15.60
2023-01-30T13:19:51.211Z,16.23
2023-01-30T13:23:04.727Z,16.55
2023-01-30T13:26:11.814Z,18.20
2023-01-30T13:29:20.689Z,16.37
2023-01-30T13:32:48.481Z,17.50
2023-01-30T13:36:02.591Z,16.52
2023-01-30T13:39:25.779Z,16.17
2023-01-30T13:42:49.864Z,16.20
2023-01-30T13:45:56.934Z,16.65
2023-01-30T13:49:44.461Z,16.20
2023-01-30T13:53:00.920Z,16.60
2023-01-30T13:56:32.730Z,16.50
2023-01-30T13:59:57.698Z,15.90
2023-01-30T14:03:03.759Z,15.25
2023-01-30T14:06:26.811Z,16.30
2023-01-30T14:09:33.601Z,15.30
2023-01-30T14:12:46.574Z,15.85
2023-01-30T14:16:04.649Z,16.10
2023-01-30T14:19:42.273Z,14.93
2023-01-30T14:22:47.677Z,14.87
2023-01-30T14:25:53.371Z,14.75
2023-01-30T14:28:56.243Z,14.50
2023-01-30T14:35:01.952Z,14.30
2023-01-30T14:38:13.071Z,14.15
2023-01-30T14:41:25.560Z,15.77
2023-01-30T14:44:59.956Z,15.27
2023-01-30T14:48:37.728Z,15.48
2023-01-30T14:51:42.676Z,15.05
2023-01-30T14:54:50.359Z,17.33
2023-01-30T14:58:02.818Z,16.77
2023-01-30T15:01:05.616Z,15.52
2023-01-30T15:04:16.466Z,15.55
2023-01-30T15:07:24.853Z,14.57
2023-01-30T15:10:49.938Z,15.70
2023-01-30T15:14:01.522Z,15.73
2023-01-30T15:17:37.821Z,16.37
2023-01-30T15:21:18.200Z,15.88
2023-01-30T15:24:51.586Z,16.48
2023-01-30T15:28:08.084Z,14.87
2023-01-30T15:31:15.317Z,14.82
2023-01-30T15:34:24.282Z,15.27
2023-01-30T15:37:30.477Z,15.70
2023-01-30T15:40:33.438Z,15.15
2023-01-30T15:44:21.091Z,13.45
2023-01-30T15:47:45.616Z,13.80
2023-01-30T15:50:53.881Z,13.73
2023-01-30T15:53:58.252Z,14.43
2023-01-30T15:57:02.749Z,17.10
2023-01-30T16:00:08.564Z,15.07
2023-01-30T16:03:20.535Z,14.63
2023-01-30T16:06:35.708Z,14.50
2023-01-30T16:09:38.517Z,16.45
2023-01-30T16:12:42.114Z,14.85
2023-01-30T16:15:54.539Z,15.73
2023-01-30T16:19:02.137Z,15.85
2023-01-30T16:22:15.539Z,14.30
2023-01-30T16:25:22.692Z,16.42
2023-01-30T16:28:28.442Z,15.70
2023-01-30T16:31:33.614Z,16.23
2023-01-30T16:34:38.454Z,15.00
2023-01-30T16:37:41.513Z,16.02
2023-01-30T16:40:46.438Z,16.52
2023-01-30T16:44:08.277Z,16.87
2023-01-30T16:47:28.952Z,14.95
2023-01-30T16:50:31.882Z,17.42
2023-01-30T16:53:35.087Z,15.73
2023-01-30T16:56:38.231Z,17.92
2023-01-30T16:59:41.355Z,16.15
2023-01-30T17:02:57.466Z,16.15
2023-01-30T17:06:07.468Z,14.85
2023-01-30T17:09:41.886Z,15.75
2023-01-30T17:12:49.634Z,14.98
2023-01-30T17:15:52.653Z,15.95
2023-01-30T17:18:58.249Z,13.50
2023-01-30T17:22:04.642Z,15.85
2023-01-30T17:25:32.915Z,14.20
2023-01-30T17:28:40.417Z,11.80
2023-01-30T17:31:49.963Z,12.52
2023-01-30T17:34:52.907Z,13.32
2023-01-30T17:38:04.891Z,14.05
2023-01-30T17:41:18.460Z,13.07
2023-01-30T17:44:21.493Z,13.57
2023-01-30T17:47:24.457Z,13.57
2023-01-30T17:50:28.583Z,13.70
2023-01-30T17:53:32.517Z,14.27
2023-01-30T17:56:38.442Z,14.13
2023-01-30T17:59:41.695Z,13.27
2023-01-30T18:02:44.883Z,13.20
2023-01-30T18:08:51.695Z,13.10
2023-01-30T18:11:54.692Z,11.77
2023-01-30T18:14:58.688Z,11.77
2023-01-30T18:18:01.899Z,11.32
2023-01-30T18:21:06.245Z,11.38
2023-01-30T18:24:09.724Z,12.27
2023-01-30T18:30:18.232Z,12.25
2023-01-30T18:33:21.439Z,12.20
2023-01-30T18:36:24.493Z,11.43
2023-01-30T18:39:27.438Z,13.98
2023-01-30T18:42:30.474Z,14.38
2023-01-30T18:45:36.020Z,12.40
2023-01-30T18:48:39.054Z,12.13
2023-01-30T18:51:42.062Z,13.35
2023-01-30T18:54:44.934Z,12.32
2023-01-30T18:57:48.328Z,12.20
2023-01-30T19:03:56.831Z,11.43
2023-01-30T19:06:59.725Z,11.23
2023-01-30T19:10:03.698Z,10.80
2023-01-30T19:13:25.401Z,10.52
2023-01-30T19:16:30.952Z,10.10
2023-01-30T19:19:33.880Z,10.68
2023-01-30T19:22:37.143Z,11.00
2023-01-30T19:25:40.024Z,10.98
2023-01-30T19:28:44.755Z,10.82
2023-01-30T19:31:47.915Z,11.02
2023-01-30T19:37:57.525Z,9.93
2023-01-30T19:41:00.572Z,9.52
2023-01-30T19:44:06.898Z,8.85
2023-01-30T19:47:10.155Z,7.78
2023-01-30T19:50:13.480Z,6.72
2023-01-30T19:53:16.475Z,6.28
2023-01-30T19:56:21.859Z,6.25
2023-01-30T19:59:24.787Z,5.45
2023-01-30T20:02:30.008Z,5.90
2023-01-30T20:05:33.555Z,6.00
2023-01-30T20:08:37.356Z,6.32
2023-01-30T20:11:43.641Z,5.95
2023-01-30T20:14:46.389Z,5.68
2023-01-30T20:17:49.611Z,6.03
2023-01-30T20:20:52.594Z,5.78
2023-01-30T20:23:56.718Z,5.28
2023-01-30T20:26:59.690Z,6.53
2023-01-30T20:30:03.006Z,7.28
2023-01-30T20:33:06.003Z,6.60
2023-01-30T20:36:12.033Z,5.75
2023-01-30T20:39:16.951Z,5.18
2023-01-30T20:42:20.067Z,6.32
2023-01-30T20:45:22.631Z,4.80
2023-01-30T20:48:25.739Z,5.53
2023-01-30T20:51:30.694Z,5.22
2023-01-30T20:54:37.716Z,4.87
2023-01-30T20:57:43.158Z,4.20
2023-01-30T21:00:46.445Z,5.03
2023-01-30T21:03:51.436Z,4.97
2023-01-30T21:06:54.778Z,5.00
2023-01-30T21:09:57.364Z,4.78
2023-01-30T21:13:00.974Z,4.30
2023-01-30T21:16:08.083Z,4.57
2023-01-30T21:19:15.189Z,5.18
2023-01-30T21:22:18.019Z,5.37
2023-01-30T21:25:22.921Z,5.87
2023-01-30T21:28:25.566Z,4.97
2023-01-30T21:31:30.851Z,4.45
2023-01-30T21:34:35.217Z,4.07
2023-01-30T21:37:57.913Z,4.10
2023-01-30T21:41:19.076Z,4.20
2023-01-30T21:44:30.932Z,3.97
2023-01-30T21:47:33.683Z,4.32
2023-01-30T21:50:36.880Z,4.28
2023-01-30T21:53:39.955Z,4.03
2023-01-30T21:56:43.823Z,4.10
2023-01-30T21:59:46.389Z,4.70
2023-01-30T22:02:49.995Z,4.50
2023-01-30T22:05:52.876Z,4.03
2023-01-30T22:08:56.848Z,4.10
2023-01-30T22:11:59.880Z,4.12
2023-01-30T22:15:02.836Z,4.60
2023-01-30T22:18:05.818Z,4.57
2023-01-30T22:21:12.288Z,3.92
2023-01-30T22:24:15.368Z,4.40
2023-01-30T22:27:18.181Z,3.92
2023-01-30T22:30:21.216Z,4.07
2023-01-30T22:33:24.044Z,4.07
2023-01-30T22:36:29.278Z,3.65
2023-01-30T22:39:32.129Z,4.05
2023-01-30T22:42:35.243Z,3.65
2023-01-30T22:45:38.272Z,3.80
2023-01-30T22:48:42.127Z,4.28
2023-01-30T22:51:44.992Z,4.15
2023-01-30T22:54:47.826Z,3.90
2023-01-30T22:57:50.637Z,3.75
2023-01-30T23:00:53.475Z,3.62
2023-01-30T23:03:59.856Z,3.42
2023-01-30T23:07:02.795Z,3.60
2023-01-30T23:10:06.046Z,3.10
2023-01-30T23:13:08.992Z,3.00
2023-01-30T23:16:13.359Z,2.83
2023-01-30T23:19:16.157Z,3.05
2023-01-30T23:22:19.066Z,3.12
2023-01-30T23:25:22.244Z,3.30
2023-01-30T23:28:25.178Z,2.97
2023-01-30T23:31:29.115Z,3.12
2023-01-30T23:34:31.932Z,2.80
2023-01-30T23:38:06.920Z,3.35
2023-01-30T23:41:10.576Z,3.00
2023-01-30T23:44:13.440Z,2.85
2023-01-30T23:47:16.559Z,3.10
2023-01-30T23:50:19.788Z,3.50
2023-01-30T23:53:22.704Z,3.47
2023-01-30T23:56:27.912Z,3.65
2023-01-30T23:59:31.002Z,3.15
